createdAt,value
2022-08-28T00:00:15.964Z,98864.22
2022-08-28T00:02:42.872Z,98880.47
2022-08-28T00:05:11.620Z,98875.88
2022-08-28T00:07:38.433Z,98878.53
2022-08-28T00:10:07.136Z,98879.34
2022-08-28T00:12:34.781Z,98876.66
2022-08-28T00:15:01.483Z,98881.50
2022-08-28T00:17:28.062Z,98880.47
2022-08-28T00:19:54.577Z,98881.50
2022-08-28T00:22:21.125Z,98884.13
2022-08-28T00:24:48.111Z,98883.56
2022-08-28T00:27:33.293Z,98881.13
2022-08-28T00:29:59.828Z,98877.56
2022-08-28T00:32:27.019Z,98871.09
2022-08-28T00:34:53.655Z,98874.25
2022-08-28T00:37:20.154Z,98879.53
2022-08-28T00:39:51.418Z,98880.91
2022-08-28T00:42:18.324Z,98877.50
2022-08-28T00:44:45.300Z,98877.00
2022-08-28T00:47:12.446Z,98885.28
2022-08-28T00:49:47.461Z,98883.88
2022-08-28T00:52:16.015Z,98885.44
2022-08-28T00:54:58.418Z,98878.94
2022-08-28T00:57:34.232Z,98879.19
2022-08-28T01:00:01.627Z,98879.19
2022-08-28T01:02:28.252Z,98883.28
2022-08-28T01:04:55.378Z,98881.16
2022-08-28T01:07:23.167Z,98889.19
2022-08-28T01:09:54.133Z,98886.75
2022-08-28T01:12:28.125Z,98896.66
2022-08-28T01:15:00.138Z,98891.53
2022-08-28T01:17:31.497Z,98895.84
2022-08-28T01:20:06.520Z,98895.59
2022-08-28T01:22:40.304Z,98898.59
2022-08-28T01:25:14.318Z,98899.75
2022-08-28T01:27:44.401Z,98894.38
2022-08-28T01:30:14.289Z,98893.31
2022-08-28T01:32:47.921Z,98894.94
2022-08-28T01:35:19.957Z,98892.56
2022-08-28T01:37:47.007Z,98886.16
2022-08-28T01:40:20.370Z,98880.56
2022-08-28T01:42:46.999Z,98877.41
2022-08-28T01:45:17.028Z,98885.25
2022-08-28T01:47:45.753Z,98885.59
2022-08-28T01:50:20.708Z,98883.22
2022-08-28T01:52:47.240Z,98877.38
2022-08-28T01:55:14.043Z,98887.03
2022-08-28T01:57:45.958Z,98888.66
2022-08-28T02:00:14.407Z,98883.28
2022-08-28T02:02:41.261Z,98883.53
2022-08-28T02:05:09.129Z,98890.19
2022-08-28T02:07:36.348Z,98883.72
2022-08-28T02:10:04.601Z,98884.19
2022-08-28T02:12:31.877Z,98880.97
2022-08-28T02:14:58.360Z,98880.47
2022-08-28T02:17:24.836Z,98888.00
2022-08-28T02:19:51.709Z,98875.94
2022-08-28T02:22:18.485Z,98875.13
2022-08-28T02:24:45.290Z,98864.41
2022-08-28T02:27:12.024Z,98875.34
2022-08-28T02:29:39.224Z,98877.00
2022-08-28T02:32:06.142Z,98877.00
2022-08-28T02:34:34.592Z,98881.03
2022-08-28T02:37:01.080Z,98878.94
2022-08-28T02:39:28.119Z,98878.19
2022-08-28T02:41:54.665Z,98880.88
2022-08-28T02:44:21.296Z,98877.13
2022-08-28T02:46:47.761Z,98876.63
2022-08-28T02:49:14.516Z,98876.94
2022-08-28T02:51:42.291Z,98873.75
2022-08-28T02:54:08.768Z,98871.06
2022-08-28T02:56:35.283Z,98871.91
2022-08-28T02:59:01.793Z,98868.41
2022-08-28T03:01:28.321Z,98868.97
2022-08-28T03:03:54.895Z,98860.44
2022-08-28T03:06:22.990Z,98864.47
2022-08-28T03:08:49.529Z,98860.75
2022-08-28T03:11:15.994Z,98863.50
2022-08-28T03:13:42.494Z,98862.44
2022-08-28T03:16:09.020Z,98861.56
2022-08-28T03:18:35.576Z,98865.81
2022-08-28T03:21:02.141Z,98863.13
2022-08-28T03:23:29.095Z,98869.84
2022-08-28T03:26:14.769Z,98862.13
2022-08-28T03:28:47.319Z,98857.25
2022-08-28T03:31:18.027Z,98857.75
2022-08-28T03:33:45.917Z,98855.56
2022-08-28T03:36:15.481Z,98860.34
2022-08-28T03:38:42.255Z,98857.63
2022-08-28T03:41:14.496Z,98865.34
2022-08-28T03:43:41.479Z,98861.28
2022-08-28T03:46:12.522Z,98865.84
2022-08-28T03:48:39.023Z,98862.59
2022-08-28T03:51:17.553Z,98873.06
2022-08-28T03:53:45.203Z,98872.03
2022-08-28T03:56:15.498Z,98878.41
2022-08-28T03:58:43.192Z,98879.25
2022-08-28T04:01:10.922Z,98881.34
2022-08-28T04:03:37.496Z,98877.06
2022-08-28T04:06:04.279Z,98883.47
2022-08-28T04:08:30.992Z,98876.72
2022-08-28T04:11:01.924Z,98884.78
2022-08-28T04:13:29.501Z,98888.25
2022-08-28T04:16:10.642Z,98889.66
2022-08-28T04:18:42.972Z,98889.38
2022-08-28T04:21:28.046Z,98890.53
2022-08-28T04:23:55.305Z,98897.81
2022-08-28T04:26:25.796Z,98902.09
2022-08-28T04:28:53.805Z,98897.00
2022-08-28T04:31:32.222Z,98897.81
2022-08-28T04:34:04.872Z,98901.31
2022-08-28T04:36:33.498Z,98903.75
2022-08-28T04:39:00.623Z,98895.19
2022-08-28T04:41:28.401Z,98892.84
2022-08-28T04:43:57.178Z,98893.41
2022-08-28T04:46:24.232Z,98892.09
2022-08-28T04:48:50.785Z,98899.16
2022-08-28T04:51:17.267Z,98907.25
2022-08-28T04:53:44.159Z,98905.16
2022-08-28T04:56:12.917Z,98900.84
2022-08-28T04:58:41.513Z,98910.75
2022-08-28T05:01:12.758Z,98910.19
2022-08-28T05:03:40.039Z,98916.91
2022-08-28T05:06:07.158Z,98917.00
2022-08-28T05:08:34.012Z,98917.59
2022-08-28T05:11:30.705Z,98920.50
2022-08-28T05:14:04.227Z,98914.56
2022-08-28T05:16:31.032Z,98920.97
2022-08-28T05:19:01.611Z,98921.78
2022-08-28T05:21:28.258Z,98923.41
2022-08-28T05:23:57.383Z,98930.66
2022-08-28T05:26:26.780Z,98928.78
2022-08-28T05:28:56.625Z,98931.44
2022-08-28T05:31:24.463Z,98936.59
2022-08-28T05:33:52.673Z,98929.44
2022-08-28T05:36:22.049Z,98931.94
2022-08-28T05:38:49.381Z,98935.75
2022-08-28T05:41:24.853Z,98935.56
2022-08-28T05:43:53.540Z,98929.69
2022-08-28T05:46:20.742Z,98941.22
2022-08-28T05:48:49.343Z,98938.56
2022-08-28T05:51:20.071Z,98937.00
2022-08-28T05:53:49.852Z,98932.75
2022-08-28T05:56:21.462Z,98945.94
2022-08-28T05:58:48.104Z,98941.13
2022-08-28T06:01:17.926Z,98942.72
2022-08-28T06:03:50.823Z,98940.63
2022-08-28T06:06:17.449Z,98939.06
2022-08-28T06:08:56.349Z,98944.25
2022-08-28T06:11:30.387Z,98950.19
2022-08-28T06:14:01.802Z,98946.16
2022-08-28T06:16:31.583Z,98951.53
2022-08-28T06:18:58.220Z,98947.78
2022-08-28T06:21:24.803Z,98954.22
2022-08-28T06:23:51.775Z,98958.78
2022-08-28T06:26:18.817Z,98951.59
2022-08-28T06:28:45.334Z,98952.69
2022-08-28T06:31:25.029Z,98954.44
2022-08-28T06:33:54.871Z,98958.50
2022-08-28T06:36:22.499Z,98959.31
2022-08-28T06:38:49.500Z,98962.88
2022-08-28T06:41:16.604Z,98970.47
2022-08-28T06:43:43.193Z,98971.34
2022-08-28T06:46:09.922Z,98970.63
2022-08-28T06:48:36.697Z,98969.41
2022-08-28T06:51:07.071Z,98972.44
2022-08-28T06:53:33.879Z,98976.59
2022-08-28T06:56:02.182Z,98975.13
2022-08-28T06:58:29.109Z,98974.31
2022-08-28T07:01:03.943Z,98979.13
2022-08-28T07:03:30.507Z,98978.56
2022-08-28T07:05:58.660Z,98979.13
2022-08-28T07:08:27.699Z,98975.44
2022-08-28T07:10:54.486Z,98977.63
2022-08-28T07:13:22.229Z,98983.34
2022-08-28T07:15:49.113Z,98993.28
2022-08-28T07:18:15.931Z,98981.75
2022-08-28T07:20:42.410Z,98982.56
2022-08-28T07:23:08.957Z,98982.91
2022-08-28T07:25:40.472Z,98987.28
2022-08-28T07:28:07.929Z,98987.56
2022-08-28T07:30:34.420Z,98993.69
2022-08-28T07:33:00.922Z,98998.19
2022-08-28T07:35:27.475Z,98998.72
2022-08-28T07:37:53.959Z,98994.44
2022-08-28T07:40:22.244Z,98995.50
2022-08-28T07:43:07.490Z,99013.72
2022-08-28T07:45:35.449Z,99010.13
2022-08-28T07:48:11.364Z,98997.94
2022-08-28T07:50:38.221Z,99011.63
2022-08-28T07:53:08.089Z,99012.94
2022-08-28T07:55:34.570Z,99016.44
2022-08-28T07:58:01.557Z,99015.63
2022-08-28T08:00:28.159Z,99006.28
2022-08-28T08:02:54.658Z,99021.94
2022-08-28T08:05:21.200Z,99025.47
2022-08-28T08:07:47.709Z,99029.59
2022-08-28T08:10:14.949Z,99022.41
2022-08-28T08:12:47.117Z,99027.00
2022-08-28T08:15:13.629Z,99022.22
2022-08-28T08:17:40.389Z,99021.78
2022-08-28T08:20:08.532Z,99019.66
2022-08-28T08:22:35.872Z,99027.22
2022-08-28T08:25:05.504Z,99025.34
2022-08-28T08:27:38.806Z,99020.88
2022-08-28T08:30:08.294Z,99023.34
2022-08-28T08:32:34.836Z,99035.50
2022-08-28T08:35:01.691Z,99032.34
2022-08-28T08:37:28.198Z,99027.03
2022-08-28T08:39:54.844Z,99031.44
2022-08-28T08:42:27.737Z,99030.09
2022-08-28T08:44:57.379Z,99043.84
2022-08-28T08:47:36.441Z,99029.34
2022-08-28T08:50:24.063Z,99040.94
2022-08-28T08:53:46.408Z,99034.72
2022-08-28T08:56:16.812Z,99040.38
2022-08-28T08:58:49.958Z,99041.75
2022-08-28T09:01:39.489Z,99037.78
2022-08-28T09:04:22.126Z,99039.16
2022-08-28T09:06:52.547Z,99054.31
2022-08-28T09:09:37.835Z,99048.91
2022-08-28T09:12:07.224Z,99043.53
2022-08-28T09:14:41.586Z,99034.88
2022-08-28T09:17:10.194Z,99043.25
2022-08-28T09:19:36.767Z,99044.56
2022-08-28T09:22:03.792Z,99046.19
2022-08-28T09:24:33.794Z,99038.03
2022-08-28T09:27:24.342Z,99042.84
2022-08-28T09:30:07.457Z,99045.84
2022-08-28T09:32:43.535Z,99044.72
2022-08-28T09:35:25.804Z,99036.81
2022-08-28T09:37:52.429Z,99039.41
2022-08-28T09:40:48.339Z,99044.25
2022-08-28T09:43:28.440Z,99041.03
2022-08-28T09:46:05.626Z,99039.69
2022-08-28T09:48:39.230Z,99034.81
2022-08-28T09:51:25.706Z,99036.13
2022-08-28T09:53:52.137Z,99040.44
2022-08-28T09:56:27.939Z,99036.34
2022-08-28T09:59:00.501Z,99039.44
2022-08-28T10:01:50.757Z,99032.94
2022-08-28T10:04:41.293Z,99028.31
2022-08-28T10:07:22.361Z,99041.03
2022-08-28T10:10:26.494Z,99032.13
2022-08-28T10:12:59.360Z,99026.91
2022-08-28T10:15:31.848Z,99027.94
2022-08-28T10:18:34.167Z,99029.00
2022-08-28T10:21:14.811Z,99023.59
2022-08-28T10:23:57.238Z,99024.25
2022-08-28T10:26:55.145Z,99024.03
2022-08-28T10:29:30.730Z,99019.38
2022-08-28T10:32:32.658Z,99025.25
2022-08-28T10:35:01.969Z,99015.72
2022-08-28T10:37:55.699Z,99018.63
2022-08-28T10:40:29.878Z,99022.84
2022-08-28T10:43:19.982Z,99020.06
2022-08-28T10:45:49.448Z,99015.88
2022-08-28T10:48:25.085Z,99020.94
2022-08-28T10:51:16.283Z,99018.78
2022-08-28T10:53:54.560Z,99008.66
2022-08-28T10:56:25.961Z,99013.25
2022-08-28T10:58:58.954Z,99014.34
2022-08-28T11:01:32.896Z,99011.16
2022-08-28T11:04:03.179Z,99009.81
2022-08-28T11:06:53.058Z,99007.03
2022-08-28T11:09:42.815Z,99007.16
2022-08-28T11:12:19.716Z,99010.69
2022-08-28T11:14:50.054Z,99005.56
2022-08-28T11:17:22.900Z,99001.38
2022-08-28T11:20:03.304Z,99014.13
2022-08-28T11:22:45.427Z,99010.91
2022-08-28T11:25:15.010Z,99002.16
2022-08-28T11:28:14.389Z,98998.03
2022-08-28T11:30:42.846Z,99007.44
2022-08-28T11:33:44.485Z,99002.00
2022-08-28T11:36:19.810Z,99010.91
2022-08-28T11:38:46.831Z,99009.22
2022-08-28T11:41:20.930Z,99007.59
2022-08-28T11:43:52.302Z,99006.38
2022-08-28T11:46:31.532Z,99009.13
2022-08-28T11:49:27.263Z,99001.00
2022-08-28T11:52:27.310Z,98996.09
2022-08-28T11:55:24.724Z,99002.19
2022-08-28T12:00:53.937Z,98996.78
2022-08-28T12:03:42.688Z,99013.84
2022-08-28T12:06:10.841Z,99002.31
2022-08-28T12:08:51.270Z,99006.97
2022-08-28T12:11:39.304Z,99001.56
2022-08-28T12:14:11.401Z,99007.22
2022-08-28T12:17:15.949Z,99001.53
2022-08-28T12:19:58.472Z,98996.78
2022-08-28T12:22:39.482Z,99004.34
2022-08-28T12:25:15.233Z,99002.78
2022-08-28T12:27:41.973Z,99003.34
2022-08-28T12:30:08.761Z,98992.31
2022-08-28T12:32:59.929Z,98987.84
2022-08-28T12:35:29.867Z,98992.81
2022-08-28T12:37:57.283Z,98990.16
2022-08-28T12:40:50.169Z,98997.84
2022-08-28T12:43:27.719Z,98995.56
2022-08-28T12:46:01.107Z,98990.22
2022-08-28T12:48:34.991Z,98983.00
2022-08-28T12:51:06.033Z,98977.50
2022-08-28T12:53:45.604Z,98983.44
2022-08-28T12:56:15.850Z,98985.56
2022-08-28T12:58:42.768Z,98984.88
2022-08-28T13:01:21.689Z,98980.03
2022-08-28T13:04:01.555Z,98974.63
2022-08-28T13:06:30.665Z,98970.56
2022-08-28T13:09:14.976Z,98971.53
2022-08-28T13:11:47.573Z,98960.63
2022-08-28T13:14:14.613Z,98960.81
2022-08-28T13:16:47.039Z,98957.22
2022-08-28T13:19:35.017Z,98952.25
2022-08-28T13:22:09.261Z,98954.91
2022-08-28T13:24:39.572Z,98943.28
2022-08-28T13:27:12.127Z,98945.44
2022-08-28T13:29:57.296Z,98948.28
2022-08-28T13:32:27.339Z,98940.75
2022-08-28T13:35:18.122Z,98945.69
2022-08-28T13:37:53.349Z,98944.41
2022-08-28T13:41:03.106Z,98950.63
2022-08-28T13:43:43.384Z,98954.94
2022-08-28T13:46:10.267Z,98953.13
2022-08-28T13:48:36.778Z,98941.88
2022-08-28T13:51:10.493Z,98954.84
2022-08-28T13:53:38.449Z,98954.41
2022-08-28T13:56:05.401Z,98948.47
2022-08-28T13:58:32.033Z,98960.34
2022-08-28T14:00:59.012Z,98945.97
2022-08-28T14:03:41.270Z,98945.97
2022-08-28T14:06:11.687Z,98954.91
2022-08-28T14:08:43.666Z,98953.69
2022-08-28T14:11:12.699Z,98944.34
2022-08-28T14:13:40.886Z,98946.38
2022-08-28T14:16:16.783Z,98935.81
2022-08-28T14:18:43.443Z,98939.44
2022-08-28T14:21:10.097Z,98944.66
2022-08-28T14:23:36.620Z,98938.75
2022-08-28T14:26:05.727Z,98944.69
2022-08-28T14:28:32.438Z,98935.94
2022-08-28T14:30:58.909Z,98932.78
2022-08-28T14:33:25.392Z,98929.94
2022-08-28T14:35:51.923Z,98926.78
2022-08-28T14:38:18.486Z,98919.47
2022-08-28T14:40:45.573Z,98921.50
2022-08-28T14:43:13.654Z,98924.56
2022-08-28T14:45:49.600Z,98922.78
2022-08-28T14:48:18.200Z,98922.44
2022-08-28T14:50:46.440Z,98918.53
2022-08-28T14:53:14.099Z,98917.44
2022-08-28T14:55:46.407Z,98915.13
2022-08-28T14:58:13.968Z,98909.28
2022-08-28T15:00:43.372Z,98910.16
2022-08-28T15:03:10.277Z,98906.22
2022-08-28T15:05:36.882Z,98911.59
2022-08-28T15:08:07.694Z,98910.53
2022-08-28T15:10:34.592Z,98914.13
2022-08-28T15:13:01.073Z,98904.09
2022-08-28T15:15:27.570Z,98915.06
2022-08-28T15:17:54.301Z,98907.88
2022-08-28T15:20:20.881Z,98900.88
2022-08-28T15:22:47.423Z,98902.38
2022-08-28T15:25:14.193Z,98902.78
2022-08-28T15:27:40.729Z,98904.09
2022-08-28T15:30:07.834Z,98903.09
2022-08-28T15:32:34.428Z,98901.50
2022-08-28T15:35:01.002Z,98901.38
2022-08-28T15:37:29.346Z,98899.22
2022-08-28T15:40:16.825Z,98906.56
2022-08-28T15:42:44.487Z,98902.25
2022-08-28T15:45:12.155Z,98892.38
2022-08-28T15:47:38.694Z,98891.38
2022-08-28T15:50:05.918Z,98892.66
2022-08-28T15:52:33.030Z,98892.97
2022-08-28T15:54:59.539Z,98897.53
2022-08-28T15:57:26.132Z,98895.19
2022-08-28T15:59:52.620Z,98895.44
2022-08-28T16:02:22.033Z,98889.53
2022-08-28T16:04:49.384Z,98893.28
2022-08-28T16:07:16.867Z,98894.00
2022-08-28T16:09:43.390Z,98897.31
2022-08-28T16:12:09.952Z,98895.75
2022-08-28T16:14:36.556Z,98895.81
2022-08-28T16:17:05.974Z,98886.00
2022-08-28T16:19:39.821Z,98888.44
2022-08-28T16:22:06.987Z,98890.03
2022-08-28T16:24:33.778Z,98886.00
2022-08-28T16:27:00.368Z,98887.31
2022-08-28T16:29:26.896Z,98885.53
2022-08-28T16:31:53.486Z,98888.66
2022-08-28T16:34:20.348Z,98891.63
2022-08-28T16:36:48.271Z,98889.44
2022-08-28T16:39:15.112Z,98887.84
2022-08-28T16:41:43.101Z,98898.19
2022-08-28T16:44:09.612Z,98890.84
2022-08-28T16:46:36.168Z,98892.34
2022-08-28T16:49:03.221Z,98886.03
2022-08-28T16:51:29.906Z,98892.59
2022-08-28T16:53:56.668Z,98892.06
2022-08-28T16:56:24.877Z,98890.06
2022-08-28T16:58:53.052Z,98884.91
2022-08-28T17:01:23.892Z,98887.25
2022-08-28T17:03:52.529Z,98883.22
2022-08-28T17:06:23.319Z,98888.56
2022-08-28T17:08:55.905Z,98884.56
2022-08-28T17:11:24.447Z,98888.16
2022-08-28T17:13:50.948Z,98886.84
2022-08-28T17:16:18.672Z,98886.84
2022-08-28T17:18:47.473Z,98882.72
2022-08-28T17:21:33.249Z,98891.06
2022-08-28T17:24:01.182Z,98890.66
2022-08-28T17:26:27.683Z,98894.59
2022-08-28T17:28:54.296Z,98893.28
2022-08-28T17:31:20.886Z,98890.88
2022-08-28T17:33:47.434Z,98888.66
2022-08-28T17:36:28.930Z,98892.06
2022-08-28T17:39:02.249Z,98895.31
2022-08-28T17:41:28.916Z,98895.38
2022-08-28T17:43:55.464Z,98901.44
2022-08-28T17:46:22.512Z,98902.88
2022-08-28T17:48:54.462Z,98904.00
2022-08-28T17:51:33.211Z,98914.25
2022-08-28T17:54:15.472Z,98918.84
2022-08-28T17:56:42.153Z,98920.88
2022-08-28T17:59:09.240Z,98917.78
2022-08-28T18:01:36.050Z,98912.75
2022-08-28T18:04:02.909Z,98913.69
2022-08-28T18:06:29.385Z,98921.91
2022-08-28T18:08:55.870Z,98914.41
2022-08-28T18:11:22.528Z,98915.28
2022-08-28T18:13:49.417Z,98924.28
2022-08-28T18:16:16.644Z,98926.53
2022-08-28T18:18:43.494Z,98934.44
2022-08-28T18:21:10.873Z,98934.75
2022-08-28T18:23:39.456Z,98931.56
2022-08-28T18:26:07.309Z,98933.75
2022-08-28T18:28:33.961Z,98936.00
2022-08-28T18:31:03.580Z,98942.00
2022-08-28T18:33:30.317Z,98947.16
2022-08-28T18:35:56.924Z,98946.66
2022-08-28T18:38:28.052Z,98948.31
2022-08-28T18:40:55.807Z,98958.63
2022-08-28T18:43:22.564Z,98967.56
2022-08-28T18:45:49.586Z,98970.84
2022-08-28T18:48:16.538Z,98977.38
2022-08-28T18:50:46.332Z,98983.31
2022-08-28T18:53:14.680Z,98975.75
2022-08-28T18:55:41.293Z,98974.72
2022-08-28T18:58:07.889Z,98982.84
2022-08-28T19:00:36.929Z,98979.34
2022-08-28T19:03:03.696Z,98993.09
2022-08-28T19:05:30.723Z,98990.94
2022-08-28T19:08:00.086Z,98998.50
2022-08-28T19:10:33.966Z,98994.19
2022-08-28T19:13:01.653Z,98999.28
2022-08-28T19:15:28.784Z,99004.16
2022-08-28T19:17:55.632Z,99010.38
2022-08-28T19:20:23.034Z,99011.97
2022-08-28T19:22:49.884Z,99016.50
2022-08-28T19:25:28.467Z,99014.88
2022-08-28T19:27:59.211Z,99029.16
2022-08-28T19:30:27.420Z,99028.59
2022-08-28T19:32:54.080Z,99030.78
2022-08-28T19:35:20.848Z,99036.16
2022-08-28T19:37:51.481Z,99031.03
2022-08-28T19:40:18.096Z,99037.50
2022-08-28T19:42:44.626Z,99042.34
2022-08-28T19:45:13.889Z,99047.47
2022-08-28T19:47:40.755Z,99049.06
2022-08-28T19:50:10.593Z,99052.56
2022-08-28T19:52:37.430Z,99044.44
2022-08-28T19:55:06.030Z,99047.63
2022-08-28T19:57:33.649Z,99042.75
2022-08-28T20:00:00.366Z,99042.97
2022-08-28T20:02:28.510Z,99057.97
2022-08-28T20:04:55.414Z,99058.16
2022-08-28T20:07:22.331Z,99058.94
2022-08-28T20:09:48.911Z,99058.88
2022-08-28T20:12:15.490Z,99055.66
2022-08-28T20:14:42.598Z,99065.59
2022-08-28T20:17:09.505Z,99075.56
2022-08-28T20:19:36.032Z,99062.66
2022-08-28T20:22:03.750Z,99068.03
2022-08-28T20:24:30.548Z,99061.31
2022-08-28T20:26:57.322Z,99068.28
2022-08-28T20:29:24.293Z,99068.78
2022-08-28T20:31:51.674Z,99065.00
2022-08-28T20:34:19.221Z,99068.19
2022-08-28T20:36:46.140Z,99074.06
2022-08-28T20:39:12.808Z,99065.94
2022-08-28T20:41:41.076Z,99072.59
2022-08-28T20:44:09.330Z,99066.38
2022-08-28T20:46:40.864Z,99072.47
2022-08-28T20:49:12.512Z,99073.50
2022-08-28T20:52:00.982Z,99077.50
2022-08-28T20:54:29.358Z,99083.34
2022-08-28T20:56:58.051Z,99085.44
2022-08-28T20:59:28.777Z,99082.69
2022-08-28T21:02:05.293Z,99085.06
2022-08-28T21:04:35.746Z,99088.53
2022-08-28T21:07:02.342Z,99092.72
2022-08-28T21:09:33.468Z,99088.13
2022-08-28T21:12:16.659Z,99089.94
2022-08-28T21:14:44.312Z,99092.81
2022-08-28T21:17:18.517Z,99102.44
2022-08-28T21:19:55.868Z,99102.94
2022-08-28T21:22:22.458Z,99103.13
2022-08-28T21:24:48.982Z,99103.78
2022-08-28T21:27:15.499Z,99110.06
2022-08-28T21:29:45.818Z,99110.75
2022-08-28T21:32:12.727Z,99112.81
2022-08-28T21:34:39.358Z,99118.91
2022-08-28T21:37:06.358Z,99119.41
2022-08-28T21:39:33.091Z,99117.78
2022-08-28T21:41:59.648Z,99122.50
2022-08-28T21:44:26.249Z,99122.22
2022-08-28T21:46:53.018Z,99123.19
2022-08-28T21:49:19.991Z,99122.28
2022-08-28T21:51:46.520Z,99130.81
2022-08-28T21:54:13.229Z,99126.19
2022-08-28T21:56:39.987Z,99139.75
2022-08-28T21:59:06.490Z,99144.47
2022-08-28T22:01:33.179Z,99135.03
2022-08-28T22:03:59.743Z,99140.59
2022-08-28T22:06:27.099Z,99146.72
2022-08-28T22:08:54.927Z,99148.03
2022-08-28T22:11:24.864Z,99149.56
2022-08-28T22:13:52.339Z,99148.91
2022-08-28T22:16:21.516Z,99149.63
2022-08-28T22:18:48.067Z,99148.47
2022-08-28T22:21:37.087Z,99154.31
2022-08-28T22:24:04.669Z,99154.22
2022-08-28T22:26:31.326Z,99151.22
2022-08-28T22:28:58.142Z,99159.16
2022-08-28T22:31:24.747Z,99157.19
2022-08-28T22:33:52.145Z,99150.69
2022-08-28T22:36:20.550Z,99164.22
2022-08-28T22:38:53.389Z,99161.66
2022-08-28T22:41:20.625Z,99157.63
2022-08-28T22:43:51.376Z,99157.28
2022-08-28T22:46:20.413Z,99155.31
2022-08-28T22:48:47.265Z,99154.97
2022-08-28T22:51:18.236Z,99155.44
2022-08-28T22:53:45.269Z,99156.50
2022-08-28T22:56:12.348Z,99161.25
2022-08-28T22:58:39.482Z,99159.41
2022-08-28T23:01:12.467Z,99157.78
2022-08-28T23:03:40.693Z,99159.28
2022-08-28T23:06:07.613Z,99159.97
2022-08-28T23:08:34.453Z,99168.13
2022-08-28T23:11:01.387Z,99165.94
2022-08-28T23:13:29.555Z,99159.66
2022-08-28T23:15:56.344Z,99163.28
2022-08-28T23:18:22.991Z,99161.53
2022-08-28T23:20:50.648Z,99159.00
2022-08-28T23:23:19.262Z,99160.03
2022-08-28T23:25:45.781Z,99163.19
2022-08-28T23:28:12.488Z,99158.84
2022-08-28T23:30:41.268Z,99157.25
2022-08-28T23:33:19.756Z,99151.88
2022-08-28T23:35:51.243Z,99155.38
2022-08-28T23:38:17.901Z,99146.78
2022-08-28T23:40:44.571Z,99156.31
2022-08-28T23:43:11.969Z,99155.97
2022-08-28T23:45:40.674Z,99151.88
2022-08-28T23:48:08.346Z,99152.13
2022-08-28T23:50:35.352Z,99153.63
2022-08-28T23:53:04.434Z,99142.84
2022-08-28T23:55:31.747Z,99142.94
2022-08-28T23:58:00.187Z,99145.13
